createdAt,value
2019-05-15T00:00:41.152Z,1.50
2019-05-15T00:03:08.680Z,2.23
2019-05-15T00:05:35.514Z,1.80
2019-05-15T00:08:02.310Z,1.47
2019-05-15T00:10:29.137Z,1.80
2019-05-15T00:12:58.018Z,1.70
2019-05-15T00:15:24.551Z,1.57
2019-05-15T00:17:51.299Z,1.50
2019-05-15T00:20:20.168Z,1.00
2019-05-15T00:22:48.424Z,1.37
2019-05-15T00:25:14.888Z,1.33
2019-05-15T00:27:41.681Z,1.60
2019-05-15T00:30:08.754Z,1.17
2019-05-15T00:32:35.726Z,1.43
2019-05-15T00:35:02.467Z,1.37
2019-05-15T00:37:29.301Z,1.43
2019-05-15T00:39:56.044Z,1.37
2019-05-15T00:42:22.884Z,1.43
2019-05-15T00:44:49.734Z,1.17
2019-05-15T00:47:18.121Z,1.20
2019-05-15T00:49:44.948Z,1.60
2019-05-15T00:52:12.361Z,1.67
2019-05-15T00:54:39.461Z,1.60
2019-05-15T00:57:08.430Z,1.60
2019-05-15T00:59:34.974Z,0.90
2019-05-15T01:02:01.819Z,1.80
2019-05-15T01:04:28.567Z,1.23
2019-05-15T01:06:55.601Z,1.23
2019-05-15T01:09:22.339Z,1.20
2019-05-15T01:11:49.085Z,1.70
2019-05-15T01:14:16.023Z,1.10
2019-05-15T01:16:42.900Z,1.43
2019-05-15T01:19:09.709Z,1.70
2019-05-15T01:21:38.471Z,1.30
2019-05-15T01:24:04.897Z,1.20
2019-05-15T01:26:31.672Z,1.17
2019-05-15T01:28:58.542Z,1.60
2019-05-15T01:31:25.557Z,1.30
2019-05-15T01:33:52.299Z,1.30
2019-05-15T01:36:19.419Z,1.60
2019-05-15T01:38:48.075Z,1.40
2019-05-15T01:41:14.767Z,1.43
2019-05-15T01:43:41.637Z,1.40
2019-05-15T01:46:08.679Z,1.47
2019-05-15T01:48:35.500Z,1.20
2019-05-15T01:51:02.297Z,1.43
2019-05-15T01:53:29.212Z,1.57
2019-05-15T01:55:56.127Z,1.40
2019-05-15T01:58:23.481Z,1.10
2019-05-15T02:00:50.216Z,1.10
2019-05-15T02:03:18.363Z,1.60
2019-05-15T02:05:47.908Z,1.37
2019-05-15T02:08:14.142Z,1.47
2019-05-15T02:10:40.857Z,1.27
2019-05-15T02:13:08.539Z,1.30
2019-05-15T02:15:35.580Z,0.97
2019-05-15T02:18:02.425Z,1.20
2019-05-15T02:20:29.610Z,1.03
2019-05-15T02:22:56.401Z,0.93
2019-05-15T02:25:23.238Z,1.27
2019-05-15T02:27:50.772Z,1.03
2019-05-15T02:30:27.901Z,1.03
2019-05-15T02:32:49.887Z,1.60
2019-05-15T02:35:14.910Z,0.97
2019-05-15T02:37:41.646Z,1.10
2019-05-15T02:40:09.976Z,1.10
2019-05-15T02:42:39.507Z,1.17
2019-05-15T02:45:05.345Z,1.10
2019-05-15T02:47:32.259Z,1.60
2019-05-15T02:49:59.467Z,0.87
2019-05-15T02:52:29.263Z,1.37
2019-05-15T02:54:54.764Z,1.13
2019-05-15T02:57:21.606Z,1.20
2019-05-15T02:59:49.945Z,1.40
2019-05-15T03:02:19.108Z,0.90
2019-05-15T03:04:48.353Z,1.00
2019-05-15T03:07:13.783Z,1.20
2019-05-15T03:09:40.539Z,0.90
2019-05-15T03:12:09.115Z,1.40
2019-05-15T03:14:35.944Z,1.00
2019-05-15T03:17:02.658Z,0.77
2019-05-15T03:19:30.081Z,1.07
2019-05-15T03:21:59.921Z,0.90
2019-05-15T03:24:28.643Z,1.10
2019-05-15T03:26:53.945Z,0.80
2019-05-15T03:29:21.333Z,0.93
2019-05-15T03:32:05.171Z,1.20
2019-05-15T03:34:23.127Z,1.20
2019-05-15T03:36:46.223Z,1.20
2019-05-15T03:39:13.582Z,0.90
2019-05-15T03:41:40.417Z,1.10
2019-05-15T03:44:09.416Z,1.20
2019-05-15T03:46:35.767Z,1.23
2019-05-15T03:49:02.591Z,1.00
2019-05-15T03:51:29.424Z,1.00
2019-05-15T03:53:56.273Z,1.20
2019-05-15T03:56:23.111Z,1.47
2019-05-15T03:58:49.959Z,1.67
2019-05-15T04:01:30.063Z,1.97
2019-05-15T04:03:45.204Z,1.87
2019-05-15T04:06:12.013Z,1.90
2019-05-15T04:08:39.287Z,2.10
2019-05-15T04:11:09.255Z,1.67
2019-05-15T04:13:35.002Z,1.60
2019-05-15T04:16:02.067Z,1.27
2019-05-15T04:18:29.465Z,1.63
2019-05-15T04:20:59.841Z,1.97
2019-05-15T04:23:25.127Z,1.53
2019-05-15T04:25:51.976Z,2.13
2019-05-15T04:28:19.277Z,4.27
2019-05-15T04:30:49.303Z,3.13
2019-05-15T04:33:14.842Z,2.80
2019-05-15T04:35:41.584Z,2.47
2019-05-15T04:38:09.419Z,1.83
2019-05-15T04:40:39.710Z,1.97
2019-05-15T04:43:05.087Z,1.80
2019-05-15T04:45:35.130Z,1.60
2019-05-15T04:48:00.366Z,2.17
2019-05-15T04:50:28.787Z,1.23
2019-05-15T04:52:59.021Z,2.60
2019-05-15T04:55:24.111Z,2.40
2019-05-15T04:57:50.851Z,2.00
2019-05-15T05:00:19.861Z,2.27
2019-05-15T05:02:46.034Z,1.93
2019-05-15T05:05:12.885Z,1.50
2019-05-15T05:07:39.905Z,1.43
2019-05-15T05:10:09.506Z,1.67
2019-05-15T05:12:35.950Z,1.43
2019-05-15T05:15:02.901Z,1.77
2019-05-15T05:17:30.295Z,1.70
2019-05-15T05:19:58.319Z,1.73
2019-05-15T05:22:25.195Z,1.20
2019-05-15T05:24:52.037Z,1.50
2019-05-15T05:27:18.878Z,1.60
2019-05-15T05:29:47.928Z,2.00
2019-05-15T05:32:28.149Z,1.70
2019-05-15T05:34:42.690Z,1.70
2019-05-15T05:37:09.418Z,1.63
2019-05-15T05:39:36.265Z,1.70
2019-05-15T05:42:03.109Z,1.70
2019-05-15T05:44:29.952Z,1.90
2019-05-15T05:46:58.249Z,1.70
2019-05-15T05:49:25.066Z,2.00
2019-05-15T05:51:51.903Z,2.60
2019-05-15T05:54:18.744Z,2.50
2019-05-15T05:56:45.589Z,2.23
2019-05-15T05:59:12.357Z,2.07
2019-05-15T06:01:44.030Z,2.80
2019-05-15T06:04:07.926Z,2.43
2019-05-15T06:06:34.697Z,2.10
2019-05-15T06:09:01.548Z,2.27
2019-05-15T06:11:28.378Z,2.53
2019-05-15T06:13:55.242Z,1.83
2019-05-15T06:16:22.067Z,2.07
2019-05-15T06:18:49.301Z,2.03
2019-05-15T06:21:17.919Z,2.23
2019-05-15T06:23:46.838Z,2.10
2019-05-15T06:26:13.321Z,1.93
2019-05-15T06:28:40.174Z,2.47
2019-05-15T06:31:08.760Z,2.37
2019-05-15T06:33:35.392Z,1.93
2019-05-15T06:36:02.523Z,2.20
2019-05-15T06:38:30.924Z,2.40
2019-05-15T06:40:58.247Z,2.57
2019-05-15T06:43:27.929Z,2.70
2019-05-15T06:45:54.097Z,2.37
2019-05-15T06:48:20.937Z,2.90
2019-05-15T06:50:48.986Z,2.00
2019-05-15T06:53:18.792Z,2.43
2019-05-15T06:55:44.741Z,2.33
2019-05-15T06:58:11.588Z,2.90
2019-05-15T07:00:39.094Z,3.40
2019-05-15T07:03:20.139Z,2.77
2019-05-15T07:05:34.571Z,2.53
2019-05-15T07:08:01.836Z,2.83
2019-05-15T07:10:28.807Z,2.20
2019-05-15T07:12:55.710Z,2.77
2019-05-15T07:15:22.545Z,2.77
2019-05-15T07:17:49.384Z,2.70
2019-05-15T07:20:18.464Z,3.40
2019-05-15T07:22:45.228Z,3.60
2019-05-15T07:25:12.061Z,2.60
2019-05-15T07:27:39.310Z,3.07
2019-05-15T07:30:07.760Z,2.93
2019-05-15T07:32:34.739Z,2.23
2019-05-15T07:35:01.485Z,2.30
2019-05-15T07:37:28.979Z,2.83
2019-05-15T07:39:55.892Z,2.57
2019-05-15T07:42:22.618Z,2.13
2019-05-15T07:44:49.460Z,2.30
2019-05-15T07:47:18.918Z,1.80
2019-05-15T07:49:44.779Z,2.00
2019-05-15T07:52:11.590Z,1.97
2019-05-15T07:54:38.530Z,2.07
2019-05-15T07:57:05.416Z,2.50
2019-05-15T07:59:32.404Z,1.80
2019-05-15T08:01:59.208Z,2.20
2019-05-15T08:04:30.558Z,1.60
2019-05-15T08:06:54.750Z,1.50
2019-05-15T08:09:21.769Z,1.70
2019-05-15T08:11:48.877Z,1.80
2019-05-15T08:14:18.315Z,1.33
2019-05-15T08:16:44.240Z,1.20
2019-05-15T08:19:11.081Z,1.03
2019-05-15T08:21:38.503Z,1.47
2019-05-15T08:24:05.490Z,1.20
2019-05-15T08:26:32.320Z,1.40
2019-05-15T08:28:59.273Z,2.10
2019-05-15T08:31:28.594Z,1.30
2019-05-15T08:33:54.601Z,1.40
2019-05-15T08:36:21.449Z,1.40
2019-05-15T08:38:48.749Z,1.70
2019-05-15T08:41:18.316Z,1.13
2019-05-15T08:43:44.103Z,1.67
2019-05-15T08:46:10.945Z,1.80
2019-05-15T08:48:38.319Z,1.97
2019-05-15T08:51:05.303Z,2.50
2019-05-15T08:53:32.081Z,1.83
2019-05-15T08:55:59.025Z,1.70
2019-05-15T08:58:25.977Z,1.30
2019-05-15T09:00:52.814Z,1.50
2019-05-15T09:03:19.659Z,1.90
2019-05-15T09:05:48.391Z,1.40
2019-05-15T09:08:15.490Z,1.93
2019-05-15T09:10:42.332Z,2.07
2019-05-15T09:13:09.554Z,1.47
2019-05-15T09:15:39.362Z,1.27
2019-05-15T09:18:12.360Z,1.70
2019-05-15T09:20:33.381Z,1.20
2019-05-15T09:23:00.222Z,1.53
2019-05-15T09:25:28.785Z,1.60
2019-05-15T09:27:57.821Z,1.40
2019-05-15T09:30:24.234Z,1.60
2019-05-15T09:32:51.073Z,1.67
2019-05-15T09:35:18.695Z,1.27
2019-05-15T09:37:45.780Z,1.60
2019-05-15T09:40:12.535Z,1.70
2019-05-15T09:42:39.364Z,1.10
2019-05-15T09:45:06.098Z,1.27
2019-05-15T09:47:32.944Z,1.43
2019-05-15T09:49:59.788Z,1.53
2019-05-15T09:52:29.304Z,1.37
2019-05-15T09:54:55.105Z,1.33
2019-05-15T09:57:21.953Z,1.43
2019-05-15T09:59:49.000Z,1.60
2019-05-15T10:02:15.844Z,1.43
2019-05-15T10:04:42.678Z,1.50
2019-05-15T10:07:09.523Z,1.63
2019-05-15T10:09:38.750Z,1.33
2019-05-15T10:12:04.763Z,1.30
2019-05-15T10:14:31.588Z,1.47
2019-05-15T10:16:58.530Z,0.97
2019-05-15T10:19:26.080Z,1.20
2019-05-15T10:21:53.429Z,1.57
2019-05-15T10:24:20.391Z,1.80
2019-05-15T10:26:49.074Z,1.90
2019-05-15T10:29:15.606Z,2.10
2019-05-15T10:31:42.356Z,1.13
2019-05-15T10:34:09.409Z,1.20
2019-05-15T10:36:38.526Z,1.30
2019-05-15T10:39:04.963Z,1.57
2019-05-15T10:41:31.864Z,1.07
2019-05-15T10:44:00.387Z,1.20
2019-05-15T10:46:27.196Z,1.47
2019-05-15T10:48:54.119Z,2.60
2019-05-15T10:51:20.974Z,1.90
2019-05-15T10:53:48.789Z,1.50
2019-05-15T10:56:18.387Z,1.40
2019-05-15T10:58:44.360Z,1.97
2019-05-15T11:01:11.497Z,1.30
2019-05-15T11:03:40.060Z,1.30
2019-05-15T11:06:09.011Z,1.73
2019-05-15T11:08:35.614Z,1.17
2019-05-15T11:11:02.467Z,1.33
2019-05-15T11:13:29.303Z,1.70
2019-05-15T11:15:56.137Z,1.33
2019-05-15T11:18:23.094Z,1.60
2019-05-15T11:20:50.030Z,1.50
2019-05-15T11:23:19.536Z,1.87
2019-05-15T11:25:45.244Z,2.50
2019-05-15T11:28:12.091Z,2.30
2019-05-15T11:30:39.508Z,1.97
2019-05-15T11:33:09.319Z,3.70
2019-05-15T11:35:35.026Z,2.20
2019-05-15T11:38:01.889Z,1.93
2019-05-15T11:40:28.758Z,1.53
2019-05-15T11:42:55.599Z,2.20
2019-05-15T11:45:22.341Z,1.87
2019-05-15T11:47:49.174Z,2.20
2019-05-15T11:50:19.938Z,1.60
2019-05-15T11:52:44.400Z,1.50
2019-05-15T11:55:11.245Z,1.30
2019-05-15T11:57:46.065Z,1.40
2019-05-15T12:00:14.966Z,1.30
2019-05-15T12:02:35.354Z,1.77
2019-05-15T12:05:02.187Z,1.40
2019-05-15T12:07:29.190Z,1.53
2019-05-15T12:09:58.093Z,1.70
2019-05-15T12:12:24.660Z,1.90
2019-05-15T12:14:51.534Z,2.00
2019-05-15T12:17:18.980Z,2.20
2019-05-15T12:19:55.051Z,1.90
2019-05-15T12:22:14.284Z,1.83
2019-05-15T12:24:41.125Z,2.20
2019-05-15T12:27:15.182Z,2.63
2019-05-15T12:29:39.542Z,1.73
2019-05-15T12:32:21.792Z,1.93
2019-05-15T12:34:33.811Z,2.17
2019-05-15T12:37:00.659Z,2.20
2019-05-15T12:39:30.425Z,2.20
2019-05-15T13:01:43.915Z,2.77
2019-05-15T13:04:10.762Z,3.10
2019-05-15T13:06:47.679Z,3.07
2019-05-15T13:09:08.410Z,3.07
2019-05-15T13:11:34.668Z,3.33
2019-05-15T13:14:01.582Z,2.57
2019-05-15T13:16:28.571Z,3.00
2019-05-15T13:18:55.403Z,2.73
2019-05-15T13:21:22.236Z,4.20
2019-05-15T13:23:49.080Z,3.53
2019-05-15T13:26:23.680Z,4.07
2019-05-15T13:28:44.312Z,2.70
2019-05-15T13:31:11.142Z,3.00
2019-05-15T13:33:38.605Z,2.50
2019-05-15T13:36:05.656Z,3.30
2019-05-15T13:38:32.739Z,2.50
2019-05-15T13:40:59.530Z,2.50
2019-05-15T13:43:28.780Z,3.07
2019-05-15T13:45:54.858Z,3.03
2019-05-15T13:48:21.698Z,2.73
2019-05-15T13:50:48.437Z,3.23
2019-05-15T13:53:15.610Z,3.40
2019-05-15T13:55:43.133Z,3.00
2019-05-15T13:58:09.989Z,2.70
2019-05-15T14:00:39.140Z,3.10
2019-05-15T14:03:05.300Z,2.70
2019-05-15T14:05:32.145Z,3.00
2019-05-15T14:07:59.498Z,3.30
2019-05-15T14:10:28.449Z,4.40
2019-05-15T14:12:54.717Z,3.70
2019-05-15T14:15:21.658Z,3.53
2019-05-15T14:17:48.498Z,2.87
2019-05-15T14:20:15.352Z,2.53
2019-05-15T14:22:42.213Z,3.07
2019-05-15T14:25:09.372Z,3.20
2019-05-15T14:27:39.351Z,3.00
2019-05-15T14:30:05.166Z,3.23
2019-05-15T14:32:37.689Z,3.40
2019-05-15T14:35:00.511Z,4.07
2019-05-15T14:37:28.633Z,4.00
2019-05-15T14:39:57.874Z,3.33
2019-05-15T14:42:23.983Z,3.77
2019-05-15T14:44:51.129Z,3.73
2019-05-15T14:47:19.258Z,2.80
2019-05-15T14:49:49.287Z,3.30
2019-05-15T14:52:14.733Z,3.07
2019-05-15T14:54:41.576Z,2.97
2019-05-15T14:57:08.738Z,3.83
2019-05-15T14:59:36.100Z,3.63
2019-05-15T15:02:04.069Z,3.23
2019-05-15T15:04:30.883Z,3.23
2019-05-15T15:06:58.178Z,2.90
2019-05-15T15:09:24.976Z,2.93
2019-05-15T15:11:51.716Z,3.10
2019-05-15T15:14:18.558Z,2.90
2019-05-15T15:16:45.422Z,3.33
2019-05-15T15:19:12.452Z,3.60
2019-05-15T15:21:39.285Z,2.87
2019-05-15T15:24:08.401Z,3.40
2019-05-15T15:26:34.608Z,3.00
2019-05-15T15:29:01.515Z,3.53
2019-05-15T15:31:28.867Z,4.00
2019-05-15T15:33:57.900Z,3.43
2019-05-15T15:36:24.334Z,4.23
2019-05-15T15:38:51.243Z,3.07
2019-05-15T15:41:18.015Z,3.73
2019-05-15T15:43:44.853Z,3.70
2019-05-15T15:46:11.592Z,3.93
2019-05-15T15:48:39.116Z,3.23
2019-05-15T15:51:08.949Z,3.57
2019-05-15T15:53:34.889Z,3.47
2019-05-15T15:56:02.010Z,4.27
2019-05-15T15:58:29.215Z,3.67
2019-05-15T16:00:56.126Z,3.83
2019-05-15T16:03:22.975Z,3.67
2019-05-15T16:05:49.817Z,4.00
2019-05-15T16:08:18.922Z,4.70
2019-05-15T16:10:44.926Z,3.77
2019-05-15T16:13:11.768Z,4.37
2019-05-15T16:15:38.792Z,3.40
2019-05-15T16:18:05.668Z,3.93
2019-05-15T16:20:32.700Z,3.50
2019-05-15T16:22:59.443Z,3.70
2019-05-15T16:25:26.280Z,4.27
2019-05-15T16:27:53.131Z,3.80
2019-05-15T16:30:19.975Z,3.10
2019-05-15T16:32:47.117Z,3.27
2019-05-15T16:35:13.899Z,3.50
2019-05-15T16:37:40.701Z,3.37
2019-05-15T16:40:07.553Z,3.10
2019-05-15T16:42:34.390Z,3.23
2019-05-15T16:45:01.223Z,3.73
2019-05-15T16:47:28.118Z,3.30
2019-05-15T16:49:55.114Z,3.33
2019-05-15T16:52:22.875Z,3.73
2019-05-15T16:54:49.718Z,3.33
2019-05-15T16:57:18.462Z,3.30
2019-05-15T16:59:47.878Z,3.33
2019-05-15T17:02:14.038Z,3.93
2019-05-15T17:04:40.871Z,3.80
2019-05-15T17:07:07.711Z,3.83
2019-05-15T17:09:34.565Z,4.13
2019-05-15T17:12:01.601Z,4.10
2019-05-15T17:14:29.007Z,4.57
2019-05-15T17:16:58.438Z,3.50
2019-05-15T17:19:24.276Z,4.03
2019-05-15T17:21:51.544Z,4.10
2019-05-15T17:24:18.329Z,3.70
2019-05-15T17:26:45.222Z,4.17
2019-05-15T17:29:12.058Z,4.80
2019-05-15T17:31:39.828Z,4.63
2019-05-15T17:34:07.025Z,5.00
2019-05-15T17:36:33.908Z,4.83
2019-05-15T17:39:00.650Z,5.23
2019-05-15T17:41:28.587Z,4.47
2019-05-15T17:43:57.571Z,4.80
2019-05-15T17:46:23.943Z,5.47
2019-05-15T17:48:55.788Z,5.67
2019-05-15T17:51:19.179Z,5.57
2019-05-15T17:53:46.002Z,5.93
2019-05-15T17:56:12.923Z,6.03
2019-05-15T17:58:39.730Z,6.00
2019-05-15T18:01:08.753Z,7.43
2019-05-15T18:03:34.975Z,7.50
2019-05-15T18:06:01.946Z,6.80
2019-05-15T18:08:28.760Z,6.93
2019-05-15T18:10:56.047Z,6.73
2019-05-15T18:13:22.883Z,7.30
2019-05-15T18:15:49.723Z,8.40
2019-05-15T18:18:18.511Z,6.07
2019-05-15T18:20:45.046Z,7.27
2019-05-15T18:23:11.892Z,7.57
2019-05-15T18:25:38.680Z,7.77
2019-05-15T18:28:06.173Z,8.77
2019-05-15T18:30:33.955Z,8.53
2019-05-15T18:33:00.790Z,9.07
2019-05-15T18:35:29.542Z,9.67
2019-05-15T18:37:56.116Z,10.10
2019-05-15T18:40:22.960Z,10.13
2019-05-15T18:42:49.810Z,10.63
2019-05-15T18:45:18.241Z,11.47
2019-05-15T18:47:47.949Z,10.77
2019-05-15T18:50:14.111Z,10.20
2019-05-15T18:52:40.959Z,11.47
2019-05-15T18:55:08.277Z,10.83
2019-05-15T18:57:34.985Z,10.07
2019-05-15T19:00:01.793Z,11.93
2019-05-15T19:02:28.628Z,10.77
2019-05-15T19:04:55.569Z,10.90
2019-05-15T19:07:22.316Z,10.43
2019-05-15T19:09:49.368Z,10.43
2019-05-15T19:12:17.954Z,10.20
2019-05-15T19:14:44.738Z,10.33
2019-05-15T19:17:11.619Z,10.80
2019-05-15T19:19:38.799Z,10.40
2019-05-15T19:22:07.748Z,9.47
2019-05-15T19:24:34.395Z,11.10
2019-05-15T19:27:01.239Z,9.87
2019-05-15T19:29:28.625Z,9.37
2019-05-15T19:31:55.639Z,11.87
2019-05-15T19:34:22.490Z,9.87
2019-05-15T19:36:49.332Z,10.40
2019-05-15T19:39:18.475Z,11.23
2019-05-15T19:41:44.610Z,9.77
2019-05-15T19:44:11.551Z,9.60
2019-05-15T19:46:38.757Z,10.23
2019-05-15T19:49:05.578Z,10.23
2019-05-15T19:51:32.603Z,9.03
2019-05-15T19:53:59.469Z,10.33
2019-05-15T19:56:26.214Z,10.57
2019-05-15T19:58:53.046Z,10.33
2019-05-15T20:01:20.185Z,10.30
2019-05-15T20:03:50.690Z,10.63
2019-05-15T20:06:16.029Z,10.03
2019-05-15T20:08:42.882Z,9.97
2019-05-15T20:11:10.656Z,10.70
2019-05-15T20:13:38.404Z,9.93
2019-05-15T20:16:05.445Z,9.43
2019-05-15T20:18:32.288Z,10.57
2019-05-15T20:20:59.139Z,10.57
2019-05-15T20:23:28.741Z,10.47
2019-05-15T20:25:57.550Z,11.63
2019-05-15T20:28:23.854Z,12.00
2019-05-15T20:30:51.105Z,10.37
2019-05-15T20:33:18.098Z,10.83
2019-05-15T20:35:45.110Z,9.13
2019-05-15T20:38:11.952Z,10.87
2019-05-15T20:40:38.774Z,9.80
2019-05-15T20:43:07.962Z,10.37
2019-05-15T20:45:34.570Z,11.27
2019-05-15T20:48:01.305Z,10.43
2019-05-15T20:50:28.355Z,11.13
2019-05-15T20:52:58.580Z,10.33
2019-05-15T20:55:24.437Z,9.53
2019-05-15T20:57:51.379Z,10.50
2019-05-15T21:00:19.269Z,10.97
2019-05-15T21:02:48.600Z,10.73
2019-05-15T21:08:00.868Z,11.13
2019-05-15T21:10:27.927Z,9.33
2019-05-15T21:12:54.768Z,9.80
2019-05-15T21:15:21.715Z,9.17
2019-05-15T21:17:57.762Z,10.33
2019-05-15T21:20:18.218Z,8.87
2019-05-15T21:22:45.497Z,10.73
2019-05-15T21:25:12.340Z,9.90
2019-05-15T21:27:42.305Z,10.93
2019-05-15T21:30:08.986Z,10.93
2019-05-15T21:32:38.161Z,10.33
2019-05-15T21:35:04.447Z,11.53
2019-05-15T21:37:31.475Z,11.50
2019-05-15T21:39:58.991Z,10.90
2019-05-15T21:42:25.963Z,8.93
2019-05-15T21:44:52.730Z,9.87
2019-05-15T21:47:19.545Z,9.43
2019-05-15T21:49:48.229Z,9.33
2019-05-15T21:52:15.290Z,10.27
2019-05-15T21:54:42.127Z,9.97
2019-05-15T21:57:29.396Z,9.77
2019-05-15T21:59:38.414Z,10.60
2019-05-15T22:02:05.408Z,9.27
2019-05-15T22:04:32.249Z,10.63
2019-05-15T22:06:59.110Z,11.17
2019-05-15T22:09:28.931Z,11.03
2019-05-15T22:11:57.390Z,11.83
2019-05-15T22:14:23.203Z,10.80
2019-05-15T22:16:49.945Z,8.77
2019-05-15T22:19:18.116Z,11.27
2019-05-15T22:21:45.261Z,10.90
2019-05-15T22:24:12.606Z,10.17
2019-05-15T22:26:39.569Z,10.00
2019-05-15T22:29:08.800Z,10.50
2019-05-15T22:31:35.342Z,9.17
2019-05-15T22:34:02.144Z,9.90
2019-05-15T22:36:29.386Z,11.93
2019-05-15T22:38:58.905Z,11.47
2019-05-15T22:41:24.719Z,10.17
2019-05-15T22:43:51.854Z,11.30
2019-05-15T22:46:18.793Z,11.20
2019-05-15T22:48:48.384Z,9.97
2019-05-15T22:51:14.844Z,10.03
2019-05-15T22:53:41.687Z,10.87
2019-05-15T22:56:09.295Z,10.47
2019-05-15T22:58:38.643Z,9.60
2019-05-15T23:01:08.880Z,9.53
2019-05-15T23:03:34.435Z,8.67
2019-05-15T23:06:01.219Z,9.73
2019-05-15T23:08:29.098Z,9.03
2019-05-15T23:10:58.549Z,8.40
2019-05-15T23:13:24.546Z,9.37
2019-05-15T23:15:51.343Z,10.30
2019-05-15T23:18:18.188Z,11.37
2019-05-15T23:20:45.026Z,10.10
2019-05-15T23:23:11.902Z,10.07
2019-05-15T23:25:38.721Z,11.50
2019-05-15T23:28:05.664Z,10.10
2019-05-15T23:30:32.496Z,10.07
2019-05-15T23:32:59.338Z,12.23
2019-05-15T23:35:35.487Z,10.10
2019-05-15T23:37:54.666Z,10.33
2019-05-15T23:40:21.514Z,10.63
2019-05-15T23:42:49.050Z,10.57
2019-05-15T23:45:18.240Z,9.70
2019-05-15T23:47:44.790Z,9.87
2019-05-15T23:50:12.810Z,9.47
2019-05-15T23:52:39.599Z,8.73
2019-05-15T23:55:08.631Z,9.07
2019-05-15T23:57:35.334Z,9.53
